Flight Track Log - Related Links

Times and Time Zones

All times are in EDT time to prevent confusion due to time zone crossing. See the UAL1006 flight status page for this flight to view local times or setup timezone preferences in your user account.

Time Position Orientation Groundspeed Altitude Reporting Facility
EDT Latitude Longitude Course Direction KTS MPH feet Rate Location/Type
Mon 01:36:58 AM 4.6990 -74.1340 117° Southeast 130 150  Level FlightAware ADS-B
Mon 01:37:24 AM 4.7070 -74.1440 309° West 130 150 4,901 Level FlightAware ADS-B
Mon 01:39:20 AM 4.7380 -74.2520 286° West 234 269 11,600 4,471 Climbing FlightAware ADS-B
Mon 01:40:01 AM 4.7090 -74.2810 225° Southwest 246 283 11,700 1,186 Climbing FlightAware ADS-B
Mon 01:40:46 AM 4.6660 -74.3320 230° Southwest 287 330 13,300 2,952 Climbing FlightAware ADS-B
Mon 01:41:04 AM 4.6470 -74.3570 233° Southwest 315 362 14,800 3,484 Climbing FlightAware ADS-B
Mon 01:41:17 AM 4.6440 -74.3720 259° West 320 368 15,100 353 Climbing FlightAware ADS-B
Mon 01:41:55 AM 4.6360 -74.4190 260° West 320 368 15,100  Level FlightAware ADS-B
Mon 01:42:31 AM 4.6290 -74.4640 261° West 320 368 15,100  Level FlightAware ADS-B
Mon 01:43:07 AM 4.6220 -74.5090 261° West 320 368 15,100  Level FlightAware ADS-B
Mon 01:43:43 AM 4.6150 -74.5540 261° West 320 368 15,100  Level FlightAware ADS-B
Mon 01:44:19 AM 4.6080 -74.5990 261° West 320 368 15,100  Level FlightAware ADS-B
Mon 01:44:55 AM 4.6010 -74.6440 261° West 320 368 15,100 1,791 Level FlightAware ADS-B
Mon 01:47:00 AM 4.8041 -74.7880 325° Northwest  Level Estimated
Mon 01:48:00 AM 4.9016 -74.8572 325° Northwest  Level Estimated
Mon 01:49:00 AM 4.9990 -74.9264 325° Northwest  Level Estimated
Mon 01:50:00 AM 5.0965 -74.9956 325° Northwest  Level Estimated
Mon 01:51:00 AM 5.1939 -75.0649 325° Northwest  Level Estimated
Mon 01:52:00 AM 5.2914 -75.1341 325° Northwest  Level Estimated
Mon 01:53:00 AM 5.3888 -75.2034 325° Northwest  Level Estimated
Mon 01:54:00 AM 5.4862 -75.2727 325° Northwest  Level Estimated
Mon 01:54:22 AM 5.5780 -75.5570 325° Northwest 467 537 33,100  Level FlightAware ADS-B
Mon 01:54:56 AM 5.6240 -75.6010 316° Northwest 466 536 33,200 86 Climbing FlightAware ADS-B
Mon 01:55:32 AM 5.6720 -75.6470 316° Northwest 466 536 33,200  Level FlightAware ADS-B
Mon 01:56:08 AM 5.7190 -75.6930 316° Northwest 466 536 33,200  Level FlightAware ADS-B
Mon 01:56:44 AM 5.7670 -75.7390 316° Northwest 466 536 33,200  Level FlightAware ADS-B
Mon 01:57:20 AM 5.8140 -75.7850 316° Northwest 466 536 33,200  Level FlightAware ADS-B
Mon 01:57:57 AM 5.8630 -75.8320 316° Northwest 466 536 33,200 2,435 Level FlightAware ADS-B
Mon 01:58:29 AM 5.9680 -75.9110 323° Northwest 455 524 36,000 2,507 Climbing FlightAware ADS-B
Mon 01:59:04 AM 6.0160 -75.9540 318° Northwest 456 525 36,000  Level FlightAware ADS-B
Mon 01:59:42 AM 6.0670 -76.0000 318° Northwest 456 525 36,000  Level FlightAware ADS-B
Mon 02:00:22 AM 6.1370 -76.0640 318° Northwest 456 525 36,000  Level FlightAware ADS-B
Mon 02:01:18 AM 6.2200 -76.1400 318° Northwest 455 524 36,000  Level FlightAware ADS-B
Mon 02:01:54 AM 6.2680 -76.1830 318° Northwest 455 524 36,000  Level FlightAware ADS-B
Mon 02:02:40 AM 6.3290 -76.2390 318° Northwest 455 524 36,000  Level FlightAware ADS-B
Mon 02:03:16 AM 6.3770 -76.2820 318° Northwest 455 524 36,000  Level FlightAware ADS-B
Mon 02:03:52 AM 6.4250 -76.3250 318° Northwest 455 524 36,000  Level FlightAware ADS-B
Mon 02:04:24 AM 6.5210 -76.4140 317° Northwest 456 525 36,000  Level FlightAware ADS-B
Mon 02:04:59 AM 6.5790 -76.4660 318° Northwest 457 526 36,000  Level FlightAware ADS-B
Mon 02:05:36 AM 6.6270 -76.5100 318° Northwest 457 526 36,000  Level FlightAware ADS-B
Mon 02:06:25 AM 6.7070 -76.5830 318° Northwest 457 526 36,000  Level FlightAware ADS-B
Mon 02:06:54 AM 6.7590 -76.6300 318° Northwest 457 526 36,000  Level FlightAware ADS-B
Mon 02:07:29 AM 6.8110 -76.6780 317° Northwest 459 528 36,000  Level FlightAware ADS-B
Mon 02:08:04 AM 6.8690 -76.7300 318° Northwest 459 528 36,000  Level FlightAware ADS-B
Mon 02:08:44 AM 6.9320 -76.7880 318° Northwest 457 526 36,000  Level FlightAware ADS-B
Mon 02:09:14 AM 6.9780 -76.8290 319° Northwest 453 521 36,000  Level FlightAware ADS-B
Mon 02:09:49 AM 7.0330 -76.8800 317° Northwest 452 520 36,000  Level FlightAware ADS-B
Mon 02:10:29 AM 7.0950 -76.9360 318° Northwest 450 518 36,000  Level FlightAware ADS-B
Mon 02:10:59 AM 7.1410 -76.9790 317° Northwest 450 518 36,000  Level FlightAware ADS-B
Mon 02:11:39 AM 7.2030 -77.0350 318° Northwest 449 517 36,000  Level FlightAware ADS-B
Mon 02:12:09 AM 7.2490 -77.0780 317° Northwest 449 517 36,000  Level FlightAware ADS-B
Mon 02:12:49 AM 7.3110 -77.1330 319° Northwest 449 517 36,000  Level FlightAware ADS-B
Mon 02:13:19 AM 7.3570 -77.1760 317° Northwest 448 516 36,000  Level FlightAware ADS-B
Mon 02:13:55 AM 7.4120 -77.2260 318° Northwest 448 516 36,000  Level FlightAware ADS-B
Mon 02:14:34 AM 7.4750 -77.2790 320° Northwest 449 517 36,000  Level FlightAware ADS-B
Mon 02:15:04 AM 7.5220 -77.3190 320° Northwest 448 516 36,000  Level FlightAware ADS-B
Mon 02:15:39 AM 7.5780 -77.3660 320° Northwest 448 516 36,000  Level FlightAware ADS-B
Mon 02:16:14 AM 7.6310 -77.4110 320° Northwest 448 516 36,000  Level FlightAware ADS-B
Mon 02:16:54 AM 7.6970 -77.4670 320° Northwest 453 521 36,000  Level FlightAware ADS-B
Mon 02:17:24 AM 7.7450 -77.5080 320° Northwest 457 526 36,000  Level FlightAware ADS-B
Mon 02:17:59 AM 7.8020 -77.5570 320° Northwest 458 527 36,000  Level FlightAware ADS-B
Mon 02:18:39 AM 7.8660 -77.6110 320° Northwest 458 527 36,000  Level FlightAware ADS-B
Mon 02:19:09 AM 7.9160 -77.6530 320° Northwest 459 528 36,000  Level FlightAware ADS-B
Mon 02:19:44 AM 7.9730 -77.7020 320° Northwest 458 527 36,000  Level FlightAware ADS-B
Mon 02:20:24 AM 8.0370 -77.7570 320° Northwest 457 526 36,000  Level FlightAware ADS-B
Mon 02:20:59 AM 8.0940 -77.8050 320° Northwest 456 525 36,000  Level FlightAware ADS-B
Mon 02:21:29 AM 8.1420 -77.8460 320° Northwest 455 524 36,000  Level FlightAware ADS-B
Mon 02:22:04 AM 8.1980 -77.8940 320° Northwest 454 522 36,000  Level FlightAware ADS-B
Mon 02:22:44 AM 8.2600 -77.9470 320° Northwest 454 522 36,000  Level FlightAware ADS-B
Mon 02:23:14 AM 8.3110 -77.9910 320° Northwest 453 521 36,000  Level FlightAware ADS-B
Mon 02:23:54 AM 8.3750 -78.0450 320° Northwest 453 521 36,000  Level FlightAware ADS-B
Mon 02:24:29 AM 8.4310 -78.0930 320° Northwest 453 521 36,000  Level FlightAware ADS-B
Mon 02:25:11 AM 8.4880 -78.1410 320° Northwest 453 521 36,000  Level FlightAware ADS-B
Mon 02:25:40 AM 8.5430 -78.1890 319° Northwest 455 524 36,000  Level FlightAware ADS-B
Mon 02:26:20 AM 8.5980 -78.2360 320° Northwest 455 524 36,000  Level FlightAware ADS-B
Mon 02:26:54 AM 8.6570 -78.2870 319° Northwest 457 526 36,000  Level FlightAware ADS-B
Mon 02:27:29 AM 8.7210 -78.3410 320° Northwest 457 526 36,000  Level FlightAware ADS-B
Mon 02:28:04 AM 8.7710 -78.3840 320° Northwest 456 525 36,000  Level FlightAware ADS-B
Mon 02:28:39 AM 8.8330 -78.4380 319° Northwest 454 522 36,000  Level FlightAware ADS-B
Mon 02:29:14 AM 8.8890 -78.4860 320° Northwest 451 519 36,000  Level FlightAware ADS-B
Mon 02:29:49 AM 8.9440 -78.5330 320° Northwest 450 518 36,000  Level FlightAware ADS-B
Mon 02:30:24 AM 9.0000 -78.5810 320° Northwest 450 518 36,000  Level FlightAware ADS-B
Mon 02:30:54 AM 9.0480 -78.6220 320° Northwest 450 518 36,000  Level FlightAware ADS-B
Mon 02:31:34 AM 9.1100 -78.6760 319° Northwest 451 519 36,000  Level FlightAware ADS-B
Mon 02:32:09 AM 9.1660 -78.7230 320° Northwest 452 520 36,000  Level FlightAware ADS-B
Mon 02:32:44 AM 9.2210 -78.7710 319° Northwest 453 521 36,000  Level FlightAware ADS-B
Mon 02:33:21 AM 9.2700 -78.8140 319° Northwest 453 521 36,000  Level FlightAware ADS-B
Mon 02:33:57 AM 9.3190 -78.8570 319° Northwest 453 521 36,000  Level FlightAware ADS-B
Mon 02:34:33 AM 9.3670 -78.8990 319° Northwest 453 521 36,000  Level FlightAware ADS-B
Mon 02:35:09 AM 9.4150 -78.9420 319° Northwest 453 521 36,000  Level FlightAware ADS-B
Mon 02:35:45 AM 9.4640 -78.9850 319° Northwest 453 521 36,000  Level FlightAware ADS-B
Mon 02:36:21 AM 9.5120 -79.0270 319° Northwest 453 521 36,000  Level FlightAware ADS-B
Mon 02:36:57 AM 9.5610 -79.0700 319° Northwest 453 521 36,000  Level FlightAware ADS-B
Mon 02:37:34 AM 9.6100 -79.1140 318° Northwest 453 521 36,000  Level FlightAware ADS-B
Mon 02:38:10 AM 9.6590 -79.1570 319° Northwest 453 521 36,000  Level FlightAware ADS-B
Mon 02:38:46 AM 9.7070 -79.1990 319° Northwest 453 521 36,000  Level FlightAware ADS-B
Mon 02:39:23 AM 9.7570 -79.2430 319° Northwest 453 521 36,000  Level FlightAware ADS-B
Mon 02:39:59 AM 9.8050 -79.2860 319° Northwest 453 521 36,000  Level FlightAware ADS-B
Mon 02:40:35 AM 9.8540 -79.3280 320° Northwest 453 521 36,000  Level FlightAware ADS-B
Mon 02:41:12 AM 9.9040 -79.3720 319° Northwest 453 521 36,000  Level FlightAware ADS-B
Mon 02:41:48 AM 9.9520 -79.4150 319° Northwest 453 521 36,000  Level FlightAware ADS-B
Mon 02:42:26 AM 10.0030 -79.4600 319° Northwest 453 521 36,000  Level FlightAware ADS-B
Mon 02:45:00 AM 10.2542 -79.6342 326° Northwest  Level Estimated
Mon 02:46:00 AM 10.3521 -79.7021 326° Northwest  Level Estimated
Mon 02:47:00 AM 10.4499 -79.7701 326° Northwest  Level Estimated
Mon 02:48:00 AM 10.5478 -79.8382 326° Northwest  Level Estimated
Mon 02:49:00 AM 10.6456 -79.9062 326° Northwest  Level Estimated
Mon 02:50:00 AM 10.7434 -79.9743 326° Northwest  Level Estimated
Mon 02:51:00 AM 10.8412 -80.0425 326° Northwest  Level Estimated
Mon 02:52:00 AM 10.9389 -80.1107 326° Northwest  Level Estimated
Mon 02:53:00 AM 11.0367 -80.1789 326° Northwest  Level Estimated
Mon 02:54:00 AM 11.1344 -80.2472 326° Northwest  Level Estimated
Mon 02:55:00 AM 11.2322 -80.3156 326° Northwest  Level Estimated
Mon 02:56:00 AM 11.3299 -80.3840 326° Northwest  Level Estimated
Mon 02:57:00 AM 11.4276 -80.4524 326° Northwest  Level Estimated
Mon 02:58:00 AM 11.5252 -80.5209 326° Northwest  Level Estimated
Mon 02:59:00 AM 11.6229 -80.5894 326° Northwest  Level Estimated
Mon 03:00:00 AM 11.7205 -80.6580 325° Northwest  Level Estimated
Mon 03:01:00 AM 11.8182 -80.7266 325° Northwest  Level Estimated
Mon 03:02:00 AM 11.9158 -80.7953 325° Northwest  Level Estimated
Mon 03:03:00 AM 12.0134 -80.8640 325° Northwest  Level Estimated
Mon 03:04:00 AM 12.1110 -80.9328 325° Northwest  Level Estimated
Mon 03:05:00 AM 12.2085 -81.0016 325° Northwest  Level Estimated
Mon 03:06:00 AM 12.3061 -81.0705 325° Northwest  Level Estimated
Mon 03:07:00 AM 12.4036 -81.1394 325° Northwest  Level Estimated
Mon 03:08:00 AM 12.5011 -81.2084 325° Northwest  Level Estimated
Mon 03:09:00 AM 12.5986 -81.2774 325° Northwest  Level Estimated
Mon 03:10:00 AM 12.6961 -81.3465 325° Northwest  Level Estimated
Mon 03:11:00 AM 12.7935 -81.4156 325° Northwest  Level Estimated
Mon 03:12:00 AM 12.8910 -81.4848 325° Northwest  Level Estimated
Mon 03:13:00 AM 12.9884 -81.5540 325° Northwest  Level Estimated
Mon 03:14:00 AM 13.0858 -81.6233 325° Northwest  Level Estimated
Mon 03:15:00 AM 13.1832 -81.6927 325° Northwest  Level Estimated
Mon 03:16:00 AM 13.2806 -81.7621 325° Northwest  Level Estimated
Mon 03:17:00 AM 13.3779 -81.8316 325° Northwest  Level Estimated
Mon 03:18:00 AM 13.4752 -81.9011 325° Northwest  Level Estimated
Mon 03:19:00 AM 13.5725 -81.9706 325° Northwest  Level Estimated
Mon 03:20:00 AM 13.6698 -82.0403 325° Northwest  Level Estimated
Mon 03:21:00 AM 13.7671 -82.1100 325° Northwest  Level Estimated
Mon 03:22:00 AM 13.8644 -82.1797 325° Northwest  Level Estimated
Mon 03:23:00 AM 13.9616 -82.2495 325° Northwest  Level Estimated
Mon 03:24:00 AM 14.0588 -82.3194 325° Northwest  Level Estimated
Mon 03:25:00 AM 14.1560 -82.3893 325° Northwest  Level Estimated
Mon 03:26:00 AM 14.2532 -82.4593 325° Northwest  Level Estimated
Mon 03:27:00 AM 14.3503 -82.5293 325° Northwest  Level Estimated
Mon 03:28:00 AM 14.4474 -82.5994 325° Northwest  Level Estimated
Mon 03:29:00 AM 14.5445 -82.6696 325° Northwest  Level Estimated
Mon 03:30:00 AM 14.6416 -82.7398 325° Northwest  Level Estimated
Mon 03:31:00 AM 14.7387 -82.8101 325° Northwest  Level Estimated
Mon 03:32:00 AM 14.8358 -82.8805 325° Northwest  Level Estimated
Mon 03:33:00 AM 14.9328 -82.9509 325° Northwest  Level Estimated
Mon 03:34:00 AM 15.0298 -83.0214 325° Northwest  Level Estimated
Mon 03:35:00 AM 15.1268 -83.0919 325° Northwest  Level Estimated
Mon 03:36:00 AM 15.2237 -83.1625 325° Northwest  Level Estimated
Mon 03:37:00 AM 15.3207 -83.2332 325° Northwest  Level Estimated
Mon 03:38:00 AM 15.4176 -83.3039 325° Northwest  Level Estimated
Mon 03:39:00 AM 15.5145 -83.3747 325° Northwest  Level Estimated
Mon 03:40:00 AM 15.6113 -83.4456 325° Northwest  Level Estimated
Mon 03:41:00 AM 15.7082 -83.5165 325° Northwest  Level Estimated
Mon 03:42:00 AM 15.8050 -83.5875 325° Northwest  Level Estimated
Mon 03:43:00 AM 15.9018 -83.6586 325° Northwest  Level Estimated
Mon 03:44:00 AM 15.9986 -83.7298 325° Northwest  Level Estimated
Mon 03:45:00 AM 16.0953 -83.8010 325° Northwest  Level Estimated
Mon 03:46:00 AM 16.1921 -83.8722 325° Northwest  Level Estimated
Mon 03:47:00 AM 16.2888 -83.9436 325° Northwest  Level Estimated
Mon 03:48:00 AM 16.3855 -84.0150 325° Northwest  Level Estimated
Mon 03:49:00 AM 16.4821 -84.0865 325° Northwest  Level Estimated
Mon 03:50:00 AM 16.5787 -84.1581 325° Northwest  Level Estimated
Mon 03:51:00 AM 16.6754 -84.2297 325° Northwest  Level Estimated
Mon 03:52:00 AM 16.7719 -84.3014 325° Northwest  Level Estimated
Mon 03:53:00 AM 16.8685 -84.3732 325° Northwest  Level Estimated
Mon 03:54:00 AM 16.9650 -84.4450 325° Northwest  Level Estimated
Mon 03:55:00 AM 17.0616 -84.5170 325° Northwest  Level Estimated
Mon 03:56:00 AM 17.1580 -84.5890 325° Northwest  Level Estimated
Mon 03:57:00 AM 17.2545 -84.6610 324° Northwest  Level Estimated
Mon 03:58:00 AM 17.3509 -84.7332 324° Northwest  Level Estimated
Mon 03:59:00 AM 17.4473 -84.8054 324° Northwest  Level Estimated
Mon 04:00:00 AM 17.5437 -84.8777 324° Northwest  Level Estimated
Mon 04:01:00 AM 17.6401 -84.9501 324° Northwest  Level Estimated
Mon 04:02:00 AM 17.7364 -85.0226 324° Northwest  Level Estimated
Mon 04:03:00 AM 17.8327 -85.0951 324° Northwest  Level Estimated
Mon 04:04:00 AM 17.9290 -85.1677 324° Northwest  Level Estimated
Mon 04:05:00 AM 18.0252 -85.2404 324° Northwest  Level Estimated
Mon 04:06:00 AM 18.1215 -85.3132 324° Northwest  Level Estimated
Mon 04:06:17 AM 18.7600 -85.8470 324° Northwest 460 529 36,000  Level FlightAware ADS-B
Mon 04:06:54 AM 18.8280 -85.8880 330° Northwest 459 528 36,000  Level FlightAware ADS-B
Mon 04:07:00 AM 18.2176 -85.3860 324° Northwest  Level Estimated
Mon 04:07:23 AM 18.8830 -85.9210 330° Northwest 457 526 36,000  Level FlightAware ADS-B
Mon 04:08:01 AM 18.9530 -85.9640 330° Northwest 457 526 36,000  Level FlightAware ADS-B
Mon 04:08:37 AM 19.0180 -86.0030 330° Northwest 458 527 36,000  Level FlightAware ADS-B
Mon 04:09:13 AM 19.0850 -86.0440 330° Northwest 458 527 36,000  Level FlightAware ADS-B
Mon 04:09:45 AM 19.1440 -86.0790 331° Northwest 457 526 36,000  Level FlightAware ADS-B
Mon 04:10:21 AM 19.2110 -86.1200 330° Northwest 458 527 36,000  Level FlightAware ADS-B
Mon 04:10:55 AM 19.2720 -86.1570 330° Northwest 458 527 36,000  Level FlightAware ADS-B
Mon 04:11:31 AM 19.3380 -86.1970 330° Northwest 458 527 36,000 162 Level FlightAware ADS-B
Mon 04:12:09 AM 19.4110 -86.2410 330° Northwest 464 534 36,200 600 Climbing FlightAware ADS-B
Mon 04:12:41 AM 19.4700 -86.2770 330° Northwest 464 534 36,700 882 Climbing FlightAware ADS-B
Mon 04:13:17 AM 19.5360 -86.3170 330° Northwest 464 534 37,200 882 Climbing FlightAware ADS-B
Mon 04:13:49 AM 19.5960 -86.3540 330° Northwest 463 533 37,700 667 Climbing FlightAware ADS-B
Mon 04:14:29 AM 19.6710 -86.4000 330° Northwest 463 533 38,000 250 Climbing FlightAware ADS-B
Mon 04:15:01 AM 19.7310 -86.4360 331° Northwest 461 531 38,000  Level FlightAware ADS-B
Mon 04:15:37 AM 19.7970 -86.4760 330° Northwest 458 527 38,000  Level FlightAware ADS-B
Mon 04:16:13 AM 19.8640 -86.5170 330° Northwest 456 525 38,000  Level FlightAware ADS-B
Mon 04:16:47 AM 19.9260 -86.5550 330° Northwest 455 524 38,000  Level FlightAware ADS-B
Mon 04:17:21 AM 19.9880 -86.5930 330° Northwest 453 521 38,000  Level FlightAware ADS-B
Mon 04:17:57 AM 20.0520 -86.6320 330° Northwest 452 520 38,000  Level FlightAware ADS-B
Mon 04:18:32 AM 20.1160 -86.6720 330° Northwest 452 520 38,000  Level FlightAware ADS-B
Mon 04:19:08 AM 20.1820 -86.7120 330° Northwest 452 520 38,000  Level FlightAware ADS-B
Mon 04:19:40 AM 20.2410 -86.7480 330° Northwest 452 520 38,000  Level FlightAware ADS-B
Mon 04:20:18 AM 20.3100 -86.7910 330° Northwest 452 520 38,000  Level FlightAware ADS-B
Mon 04:20:54 AM 20.3740 -86.8300 330° Northwest 452 520 38,000  Level FlightAware ADS-B
Mon 04:21:26 AM 20.4330 -86.8660 330° Northwest 450 518 38,000  Level FlightAware ADS-B
Mon 04:22:04 AM 20.5000 -86.9080 330° Northwest 449 517 38,000  Level FlightAware ADS-B
Mon 04:22:36 AM 20.5560 -86.9470 327° Northwest 450 518 38,000  Level FlightAware ADS-B
Mon 04:23:12 AM 20.6190 -86.9910 327° Northwest 449 517 38,000  Level FlightAware ADS-B
Mon 04:23:48 AM 20.6800 -87.0350 326° Northwest 446 513 38,000  Level FlightAware ADS-B
Mon 04:24:24 AM 20.7420 -87.0790 326° Northwest 444 511 38,000  Level FlightAware ADS-B
Mon 04:24:56 AM 20.7970 -87.1190 326° Northwest 443 510 38,000  Level FlightAware ADS-B
Mon 04:25:32 AM 20.8580 -87.1620 327° Northwest 441 507 38,000  Level FlightAware ADS-B
Mon 04:26:03 AM 20.9110 -87.2000 326° Northwest 442 509 38,000  Level FlightAware ADS-B
Mon 04:26:41 AM 20.9760 -87.2460 327° Northwest 444 511 38,000  Level FlightAware ADS-B
Mon 04:27:19 AM 21.0400 -87.2920 326° Northwest 445 512 38,000  Level FlightAware ADS-B
Mon 04:27:51 AM 21.0960 -87.3320 326° Northwest 445 512 38,000  Level FlightAware ADS-B
Mon 04:28:27 AM 21.1570 -87.3760 326° Northwest 445 512 38,000  Level FlightAware ADS-B
Mon 04:28:58 AM 21.2110 -87.4150 326° Northwest 447 514 38,000  Level FlightAware ADS-B
Mon 04:29:39 AM 21.2810 -87.4650 326° Northwest 449 517 38,000  Level FlightAware ADS-B
Mon 04:30:10 AM 21.3360 -87.5050 326° Northwest 450 518 38,000  Level FlightAware ADS-B
Mon 04:30:48 AM 21.3990 -87.5510 326° Northwest 450 518 38,000  Level FlightAware ADS-B
Mon 04:31:20 AM 21.4560 -87.5920 326° Northwest 449 517 38,000  Level FlightAware ADS-B
Mon 04:31:57 AM 21.5200 -87.6380 326° Northwest 445 512 38,000  Level FlightAware ADS-B
Mon 04:32:32 AM 21.5780 -87.6800 326° Northwest 445 512 38,000  Level FlightAware ADS-B
Mon 04:33:04 AM 21.6350 -87.7210 326° Northwest 445 512 38,000  Level FlightAware ADS-B
Mon 04:33:44 AM 21.7030 -87.7710 326° Northwest 446 513 38,000  Level FlightAware ADS-B
Mon 04:34:16 AM 21.7560 -87.8090 326° Northwest 447 514 38,000  Level FlightAware ADS-B
Mon 04:34:52 AM 21.8190 -87.8550 326° Northwest 448 516 38,000  Level FlightAware ADS-B
Mon 04:35:41 AM 21.8910 -87.9080 326° Northwest 448 516 38,000  Level FlightAware ADS-B
Mon 04:36:08 AM 21.9350 -87.9410 325° Northwest 449 517 38,000  Level FlightAware ADS-B
Mon 04:36:45 AM 22.0070 -87.9940 326° Northwest 448 516 38,000  Level FlightAware ADS-B
Mon 04:37:16 AM 22.0520 -88.0280 325° Northwest 447 514 38,000  Level FlightAware ADS-B
Mon 04:37:56 AM 22.1190 -88.0780 325° Northwest 446 513 38,000  Level FlightAware ADS-B
Mon 04:38:26 AM 22.1690 -88.1150 326° Northwest 443 510 38,000  Level FlightAware ADS-B
Mon 04:39:06 AM 22.2390 -88.1670 325° Northwest 442 509 38,000  Level FlightAware ADS-B
Mon 04:39:50 AM 22.3140 -88.2210 326° Northwest 439 505 38,000  Level FlightAware ADS-B
Mon 04:40:35 AM 22.3860 -88.2740 326° Northwest 436 502 38,000  Level FlightAware ADS-B
Mon 04:41:10 AM 22.4410 -88.3140 326° Northwest 436 502 38,000  Level FlightAware ADS-B
Mon 04:41:45 AM 22.5150 -88.3690 326° Northwest 438 504 38,000  Level FlightAware ADS-B
Mon 04:42:22 AM 22.5800 -88.4170 326° Northwest 439 505 38,000  Level FlightAware ADS-B
Mon 04:42:58 AM 22.6430 -88.4630 326° Northwest 441 507 38,000  Level FlightAware ADS-B
Mon 04:43:30 AM 22.6950 -88.5010 326° Northwest 441 507 38,000  Level FlightAware ADS-B
Mon 04:44:08 AM 22.7610 -88.5490 326° Northwest 442 509 38,000  Level FlightAware ADS-B
Mon 04:44:44 AM 22.8210 -88.5940 325° Northwest 443 510 38,000  Level FlightAware ADS-B
Mon 04:45:16 AM 22.8750 -88.6340 326° Northwest 443 510 38,000  Level FlightAware ADS-B
Mon 04:45:52 AM 22.9370 -88.6790 326° Northwest 446 513 38,000  Level FlightAware ADS-B
Mon 04:46:28 AM 22.9980 -88.7250 325° Northwest 447 514 38,000  Level FlightAware ADS-B
Mon 04:47:04 AM 23.0610 -88.7710 326° Northwest 448 516 38,000  Level FlightAware ADS-B
Mon 04:47:36 AM 23.1150 -88.8110 326° Northwest 449 517 38,000  Level FlightAware ADS-B
Mon 04:48:08 AM 23.1700 -88.8520 326° Northwest 449 517 38,000  Level FlightAware ADS-B
Mon 04:48:52 AM 23.2000 -88.8750 325° Northwest 449 517 38,000  Level FlightAware ADS-B
Mon 04:49:27 AM 23.2580 -88.9180 326° Northwest 449 517 38,000  Level FlightAware ADS-B
Mon 04:50:06 AM 23.3710 -89.0020 326° Northwest 447 514 38,000  Level FlightAware ADS-B
Mon 04:50:33 AM 23.3670 -88.9990 145° Southeast 447 514 38,000  Level FlightAware ADS-B
Mon 04:51:13 AM 23.4250 -89.0430 325° Northwest 446 513 38,000  Level FlightAware ADS-B
Mon 04:51:47 AM 23.4910 -89.0920 326° Northwest 445 512 38,000  Level FlightAware ADS-B
Mon 04:52:23 AM 23.6050 -89.1770 326° Northwest 444 511 38,000  Level FlightAware ADS-B
Mon 04:53:34 AM 23.6760 -89.2300 326° Northwest 442 509 38,000  Level FlightAware ADS-B
Mon 04:54:25 AM 23.7550 -89.2900 325° Northwest 441 507 38,000  Level FlightAware ADS-B
Mon 04:54:57 AM 23.8010 -89.3240 326° Northwest 441 507 38,000  Level FlightAware ADS-B
Mon 04:55:31 AM 23.8560 -89.3670 324° Northwest 441 507 38,000  Level FlightAware ADS-B
Mon 04:56:07 AM 23.9080 -89.4060 326° Northwest 441 507 38,000  Level FlightAware ADS-B
Mon 04:56:43 AM 23.9590 -89.4450 325° Northwest 441 507 38,000  Level FlightAware ADS-B
Mon 04:57:19 AM 24.0100 -89.4840 325° Northwest 441 507 38,000  Level FlightAware ADS-B
Mon 04:57:56 AM 24.0620 -89.5240 325° Northwest 441 507 38,000  Level FlightAware ADS-B
Mon 04:58:30 AM 24.1110 -89.5620 325° Northwest 441 507 38,000  Level FlightAware ADS-B
Mon 04:59:06 AM 24.1620 -89.6010 325° Northwest 441 507 38,000  Level FlightAware ADS-B
Mon 04:59:42 AM 24.2130 -89.6400 325° Northwest 441 507 38,000  Level FlightAware ADS-B
Mon 05:00:18 AM 24.2640 -89.6790 325° Northwest 441 507 38,000  Level FlightAware ADS-B
Mon 05:00:54 AM 24.3150 -89.7190 324° Northwest 441 507 38,000  Level FlightAware ADS-B
Mon 05:01:30 AM 24.3660 -89.7580 325° Northwest 441 507 38,000  Level FlightAware ADS-B
Mon 05:02:06 AM 24.4180 -89.7970 326° Northwest 441 507 38,000  Level FlightAware ADS-B
Mon 05:02:42 AM 24.4690 -89.8370 324° Northwest 441 507 38,000  Level FlightAware ADS-B
Mon 05:03:19 AM 24.5210 -89.8770 325° Northwest 441 507 38,000  Level FlightAware ADS-B
Mon 05:03:55 AM 24.5720 -89.9160 325° Northwest 441 507 38,000  Level FlightAware ADS-B
Mon 05:04:31 AM 24.6240 -89.9560 325° Northwest 441 507 38,000  Level FlightAware ADS-B
Mon 05:07:00 AM 24.8678 -90.1406 326° Northwest  Level FlightAware Approximate
Mon 05:08:00 AM 24.9659 -90.2152 325° Northwest  Level FlightAware Approximate
Mon 05:09:00 AM 25.0638 -90.2898 325° Northwest  Level FlightAware Approximate
Mon 05:10:00 AM 25.1617 -90.3645 325° Northwest  Level FlightAware Approximate
Mon 05:11:00 AM 25.2596 -90.4393 325° Northwest  Level FlightAware Approximate
Mon 05:12:00 AM 25.3575 -90.5143 325° Northwest  Level FlightAware Approximate
Mon 05:13:00 AM 25.4552 -90.5893 325° Northwest  Level FlightAware Approximate
Mon 05:14:00 AM 25.5530 -90.6645 325° Northwest  Level FlightAware Approximate
Mon 05:15:00 AM 25.6507 -90.7399 325° Northwest  Level FlightAware Approximate
Mon 05:16:00 AM 25.7484 -90.8153 325° Northwest  Level FlightAware Approximate
Mon 05:17:00 AM 25.8461 -90.8909 325° Northwest  Level FlightAware Approximate
Mon 05:18:00 AM 25.9437 -90.9666 325° Northwest  Level FlightAware Approximate
Mon 05:19:00 AM 26.0412 -91.0424 325° Northwest  Level FlightAware Approximate
Mon 05:20:00 AM 26.1388 -91.1183 325° Northwest  Level FlightAware Approximate
Mon 05:21:00 AM 26.2363 -91.1944 325° Northwest  Level FlightAware Approximate
Mon 05:22:00 AM 26.3337 -91.2706 325° Northwest  Level FlightAware Approximate
Mon 05:22:45 AM 26.5297 -91.5544 325° Northwest 405 466 38,000  Level Houston Center
Mon 05:23:00 AM 26.4309 -91.3472 325° Northwest  Level FlightAware Approximate
Mon 05:23:45 AM 26.6108 -91.6044 331° Northwest 385 443 38,000  Level Houston Center
Mon 05:24:00 AM 26.5281 -91.4241 325° Northwest  Level FlightAware Approximate
Mon 05:24:45 AM 26.7264 -91.7014 323° Northwest 430 495 38,000  Level Houston Center
Mon 05:25:00 AM 26.6252 -91.5010 325° Northwest  Level FlightAware Approximate
Mon 05:25:46 AM 26.8189 -91.7656 328° Northwest 424 488 38,000  Level Houston Center
Mon 05:26:00 AM 26.7222 -91.5781 325° Northwest  Level FlightAware Approximate
Mon 05:26:46 AM 26.9086 -91.8575 318° Northwest 432 497 38,000  Level Houston Center
Mon 05:27:00 AM 26.8199 -91.6559 325° Northwest  Level FlightAware Approximate
Mon 05:27:46 AM 26.9989 -91.9472 318° Northwest 434 499 38,000  Level Houston Center
Mon 05:28:00 AM 26.9176 -91.7338 325° Northwest  Level FlightAware Approximate
Mon 05:28:46 AM 27.0894 -92.0361 319° Northwest 432 497 38,000  Level Houston Center
Mon 05:29:46 AM 27.1808 -92.1283 318° Northwest 437 503 37,900  Descending Houston Center
Mon 05:30:46 AM 27.2703 -92.2217 317° Northwest 438 504 38,000 16 Climbing Houston Center
Mon 05:36:13 AM 27.7827 -92.7255 317° Northwest 438 504 38,000  Level FlightAware ADS-B
Mon 05:36:43 AM 27.8284 -92.7715 318° Northwest 440 506 38,000  Level FlightAware ADS-B
Mon 05:37:15 AM 27.8762 -92.8196 318° Northwest 441 507 38,000  Level FlightAware ADS-B
Mon 05:37:46 AM 27.9242 -92.8680 318° Northwest 442 509 38,000  Level FlightAware ADS-B
Mon 05:38:22 AM 27.9788 -92.9232 318° Northwest 442 509 38,000  Level FlightAware ADS-B
Mon 05:38:58 AM 28.0340 -92.9789 318° Northwest 440 506 38,000  Level FlightAware ADS-B
Mon 05:39:30 AM 28.0824 -93.0279 318° Northwest 440 506 38,000  Level FlightAware ADS-B
Mon 05:40:06 AM 28.1365 -93.0828 318° Northwest 439 505 38,000  Level FlightAware ADS-B
Mon 05:40:42 AM 28.1899 -93.1370 318° Northwest 437 503 38,000 -59 Level FlightAware ADS-B
Mon 05:41:48 AM 28.2708 -93.2203 318° Northwest 434 499 37,900  Descending Houston Center
Mon 05:42:48 AM 28.3731 -93.3244 318° Northwest 435 501 38,000 50 Climbing Houston Center
Mon 05:43:48 AM 28.4614 -93.4169 317° Northwest 432 497 38,000  Level Houston Center
Mon 05:44:48 AM 28.5511 -93.5069 319° Northwest 431 496 38,000 -2,068 Level Houston Center
Mon 05:50:40 AM 29.0770 -94.0490 319° Northwest 409 471 23,800 -2,259 Descending FlightAware ADS-B
Mon 05:51:29 AM 29.1400 -94.1150 318° Northwest 402 463 22,900 -635 Descending FlightAware ADS-B
Mon 05:52:05 AM 29.1820 -94.1590 318° Northwest 402 463 22,900 -3,041 Level FlightAware ADS-B
Mon 05:52:42 AM 29.2425 -94.2210 318° Northwest 384 442 19,200 -4,299 Descending FlightAware ADS-B
Mon 05:53:12 AM 29.2816 -94.2620 318° Northwest 379 436 18,100 -2,667 Descending FlightAware ADS-B
Mon 05:53:18 AM 29.2958 -94.2769 318° Northwest 377 434 17,600 -2,400 Descending FlightAware ADS-B (EGLF / FAB)
Mon 05:53:42 AM 29.3203 -94.3027 317° Northwest 376 433 16,900 -2,250 Descending FlightAware ADS-B
Mon 05:53:50 AM 29.3372 -94.3204 318° Northwest 374 430 16,400 -2,129 Descending FlightAware ADS-B (EGLF / FAB)
Mon 05:54:13 AM 29.3591 -94.3433 318° Northwest 372 428 15,800 -2,200 Descending FlightAware ADS-B
Mon 05:54:20 AM 29.3721 -94.3568 318° Northwest 371 427 15,300 -2,200 Descending FlightAware ADS-B (EGLF / FAB)
Mon 05:54:43 AM 29.3977 -94.3835 318° Northwest 369 425 14,700 -2,200 Descending FlightAware ADS-B
Mon 05:54:50 AM 29.4138 -94.4002 318° Northwest 367 422 14,200 -2,323 Descending FlightAware ADS-B (EGLF / FAB)
Mon 05:55:14 AM 29.4359 -94.4237 317° Northwest 364 419 13,500 -2,000 Descending FlightAware ADS-B
Mon 05:55:20 AM 29.4512 -94.4399 317° Northwest 362 417 13,200 -800 Descending FlightAware ADS-B (EGLF / FAB)
Mon 05:55:44 AM 29.4729 -94.4629 317° Northwest 361 415 13,100 -150 Descending FlightAware ADS-B
Mon 05:56:00 AM 29.4982 -94.4894 318° Northwest 367 422 13,100  Level FlightAware ADS-B (EGLF / FAB)
Mon 05:56:14 AM 29.5111 -94.5029 318° Northwest 367 422 13,100  Level FlightAware ADS-B
Mon 05:56:30 AM 29.5375 -94.5305 318° Northwest 365 420 13,100  Level FlightAware ADS-B (EGLF / FAB)
Mon 05:56:44 AM 29.5488 -94.5424 318° Northwest 365 420 13,100 -200 Level FlightAware ADS-B
Mon 05:57:00 AM 29.5737 -94.5686 318° Northwest 360 414 13,000 -581 Descending FlightAware ADS-B (EGLF / FAB)
Mon 05:57:15 AM 29.5862 -94.5818 317° Northwest 358 412 12,800 -1,800 Descending FlightAware ADS-B
Mon 05:57:30 AM 29.6115 -94.6085 317° Northwest 355 409 12,100 -2,000 Descending FlightAware ADS-B (EGLF / FAB)
Mon 05:57:45 AM 29.6228 -94.6205 317° Northwest 354 407 11,800 -2,000 Descending FlightAware ADS-B
Mon 05:58:00 AM 29.6481 -94.6473 317° Northwest 351 404 11,100 -2,000 Descending FlightAware ADS-B (EGLF / FAB)
Mon 05:58:15 AM 29.6590 -94.6587 318° Northwest 350 403 10,800 -1,200 Descending FlightAware ADS-B
Mon 05:58:30 AM 29.6835 -94.6847 317° Northwest 335 386 10,500 -800 Descending FlightAware ADS-B (EGLF / FAB)
Mon 05:58:45 AM 29.6938 -94.6957 317° Northwest 328 377 10,400 -462 Descending FlightAware ADS-B
Mon 05:59:09 AM 29.7258 -94.7295 318° Northwest 305 351 10,200 -387 Descending FlightAware ADS-B (EGLF / FAB)
Mon 05:59:16 AM 29.7264 -94.7302 313° West 305 351 10,200 -818 Level FlightAware ADS-B
Mon 05:59:31 AM 29.7418 -94.7465 317° Northwest 297 342 9,900 -1,200 Descending FlightAware ADS-B
Mon 05:59:46 AM 29.7574 -94.7632 317° Northwest 296 341 9,600 -1,355 Descending FlightAware ADS-B
Mon 06:00:02 AM 29.7729 -94.7795 318° Northwest 294 338 9,200 -2,000 Descending FlightAware ADS-B
Mon 06:00:04 AM 29.7814 -94.7885 317° Northwest 293 337 9,000 -1,200 Descending FlightAware ADS-B (EGLF / FAB)
Mon 06:00:17 AM 29.7879 -94.7955 317° Northwest 292 336 8,900 -1,200 Descending FlightAware ADS-B
Mon 06:00:24 AM 29.8000 -94.8082 318° Northwest 292 336 8,600 -1,600 Descending FlightAware ADS-B (EGLF / FAB)
Mon 06:00:32 AM 29.8029 -94.8113 318° Northwest 292 336 8,500 -1,043 Descending FlightAware ADS-B
Mon 06:00:47 AM 29.8182 -94.8275 317° Northwest 289 333 8,200 -1,400 Descending FlightAware ADS-B
Mon 06:01:02 AM 29.8331 -94.8433 317° Northwest 287 330 7,800 -2,118 Descending FlightAware ADS-B
Mon 06:01:04 AM 29.8395 -94.8500 318° Northwest 287 330 7,600 -1,500 Descending FlightAware ADS-B (EGLF / FAB)
Mon 06:01:18 AM 29.8486 -94.8597 317° Northwest 286 329 7,400 -1,200 Descending FlightAware ADS-B
Mon 06:01:24 AM 29.8589 -94.8706 317° Northwest 283 326 7,200 -1,125 Descending FlightAware ADS-B (EGLF / FAB)
Mon 06:01:34 AM 29.8633 -94.8753 317° Northwest 283 326 7,100 -1,200 Descending FlightAware ADS-B
Mon 06:01:49 AM 29.8778 -94.8907 317° Northwest 281 323 6,700 -1,400 Descending FlightAware ADS-B
Mon 06:02:04 AM 29.8923 -94.9061 317° Northwest 279 321 6,400 -1,200 Descending FlightAware ADS-B
Mon 06:02:19 AM 29.9067 -94.9213 318° Northwest 277 319 6,100 -1,579 Descending FlightAware ADS-B
Mon 06:02:23 AM 29.9090 -94.9238 317° Northwest 275 316 5,900 -1,600 Descending FlightAware ADS-B (EGLF / FAB)
Mon 06:02:34 AM 29.9208 -94.9364 317° Northwest 275 316 5,700 -1,429 Descending FlightAware ADS-B
Mon 06:02:44 AM 29.9351 -94.9517 317° Northwest 273 314 5,400 -1,125 Descending FlightAware ADS-B (EGLF / FAB)
Mon 06:02:50 AM 29.9351 -94.9517 166° South 273 314 5,400 -857 Level FlightAware ADS-B
Mon 06:03:05 AM 29.9492 -94.9668 317° Northwest 272 313 5,100 -1,161 Descending FlightAware ADS-B
Mon 06:03:21 AM 29.9635 -94.9821 317° Northwest 267 307 4,800 -947 Descending FlightAware ADS-B
Mon 06:03:24 AM 29.9668 -94.9857 317° Northwest 265 305 4,800  Level FlightAware ADS-B
Mon 06:03:27 AM 29.9694 -94.9889 313° West 264 304 4,800  Level FlightAware ADS-B
Mon 06:03:31 AM 29.9722 -94.9934 306° West 262 302 4,800 -750 Level FlightAware ADS-B
Mon 06:03:35 AM 29.9742 -94.9976 299° West 260 299 4,700 -750 Descending FlightAware ADS-B
Mon 06:03:39 AM 29.9759 -95.0027 291° West 257 296 4,700 -750 Level FlightAware ADS-B
Mon 06:03:43 AM 29.9769 -95.0075 284° West 253 291 4,600 -857 Descending FlightAware ADS-B
Mon 06:03:46 AM 29.9774 -95.0116 278° West 252 290 4,600  Level FlightAware ADS-B
Mon 06:03:49 AM 29.9775 -95.0159 272° West 248 285 4,600 -400 Level FlightAware ADS-B
Mon 06:04:01 AM 29.9774 -95.0312 270° West 242 278 4,500 -462 Descending FlightAware ADS-B
Mon 06:04:15 AM 29.9774 -95.0495 270° West 235 270 4,400 -545 Descending FlightAware ADS-B
Mon 06:04:23 AM 29.9775 -95.0597 271° West 232 267 4,300 -1,200 Descending FlightAware ADS-B
Mon 06:04:35 AM 29.9775 -95.0737 270° West 232 267 4,000 -1,765 Descending FlightAware ADS-B
Mon 06:04:40 AM 29.9775 -95.0856 270° West 233 268 3,800 -1,200 Descending FlightAware ADS-B (EGLF / FAB)
Mon 06:04:50 AM 29.9775 -95.0922 270° West 234 269 3,700 -1,000 Descending FlightAware ADS-B
Mon 06:04:58 AM 29.9775 -95.1103 270° West 234 269 3,500 -800 Descending FlightAware ADS-B (EGLF / FAB)
Mon 06:05:05 AM 29.9775 -95.1114 269° West 234 269 3,500 -750 Level FlightAware ADS-B
Mon 06:05:14 AM 29.9776 -95.1231 271° West 231 266 3,300 -1,846 Descending FlightAware ADS-B
Mon 06:05:18 AM 29.9775 -95.1331 270° West 230 265 3,100 -1,412 Descending FlightAware ADS-B (EGLF / FAB)
Mon 06:05:31 AM 29.9775 -95.1434 270° West 230 265 2,900 -1,200 Descending FlightAware ADS-B
Mon 06:05:38 AM 29.9775 -95.1561 270° West 225 259 2,700 -1,200 Descending FlightAware ADS-B (EGLF / FAB)
Mon 06:05:46 AM 29.9775 -95.1615 269° West 225 259 2,600 -1,000 Descending FlightAware ADS-B
Mon 06:06:02 AM 29.9776 -95.1798 270° West 223 257 2,300 -1,235 Descending FlightAware ADS-B
Mon 06:06:20 AM 29.9775 -95.2021 270° West 221 254 1,900 -1,059 Descending FlightAware ADS-B
Mon 06:06:36 AM 29.9775 -95.2193 270° West 202 232 1,700 -938 Descending FlightAware ADS-B
Mon 06:06:52 AM 29.9775 -95.2358 270° West 194 223 1,400 -1,034 Descending FlightAware ADS-B
Mon 06:07:05 AM 29.9775 -95.2493 270° West 181 208 1,200 -1,263 Descending FlightAware ADS-B
Mon 06:07:11 AM 29.9775 -95.2598 270° West 177 204 1,000 -1,125 Descending FlightAware ADS-B (EGLF / FAB)
Mon 06:07:21 AM 29.9775 -95.2643 270° West 176 203 900 -947 Descending FlightAware ADS-B
Mon 06:07:30 AM 29.9775 -95.2721 270° West 171 197 700 -857 Descending FlightAware ADS-B
Mon 06:07:49 AM 29.9776 -95.2893 270° West 164 189 500 -774 Descending FlightAware ADS-B
Mon 06:08:01 AM 29.9775 -95.2990 269° West 160 184 300 -1,000 Descending FlightAware ADS-B
Mon 06:08:33 AM 29.9776 -95.3232 270° West 105 121 -563 Descending FlightAware ADS-B

Login

Don't have an account? Register now (free) for customized features, flight alerts, and more!